createdAt,value
2019-03-01T00:01:41.962Z,32.83
2019-03-01T00:04:23.444Z,32.58
2019-03-01T00:07:38.518Z,31.48
2019-03-01T00:10:24.546Z,31.55
2019-03-01T00:13:46.659Z,31.70
2019-03-01T00:16:40.996Z,32.33
2019-03-01T00:19:58.727Z,32.78
2019-03-01T00:23:01.530Z,31.65
2019-03-01T00:25:56.667Z,31.12
2019-03-01T00:28:58.255Z,30.62
2019-03-01T00:32:02.603Z,32.45
2019-03-01T00:35:07.807Z,30.60
2019-03-01T00:38:23.300Z,30.52
2019-03-01T00:41:20.111Z,30.88
2019-03-01T00:44:17.083Z,31.37
2019-03-01T00:46:49.700Z,30.20
2019-03-01T00:49:21.408Z,31.73
2019-03-01T00:51:52.963Z,29.23
2019-03-01T00:54:24.647Z,29.15
2019-03-01T00:57:07.031Z,29.05
2019-03-01T00:59:39.823Z,28.42
2019-03-01T01:02:11.432Z,29.27
2019-03-01T01:04:43.138Z,29.30
2019-03-01T01:07:15.843Z,27.75
2019-03-01T01:09:48.103Z,27.90
2019-03-01T01:12:19.551Z,29.00
2019-03-01T01:14:51.284Z,27.55
2019-03-01T01:17:22.851Z,32.23
2019-03-01T01:19:54.415Z,39.75
2019-03-01T01:22:25.867Z,36.80
2019-03-01T01:24:57.706Z,35.98
2019-03-01T01:27:29.251Z,35.20
2019-03-01T01:30:00.954Z,34.05
2019-03-01T01:32:32.643Z,36.13
2019-03-01T01:35:04.860Z,33.78
2019-03-01T01:37:36.476Z,33.40
2019-03-01T01:40:10.219Z,30.45
2019-03-01T01:42:41.894Z,30.70
2019-03-01T01:45:14.846Z,29.65
2019-03-01T01:47:46.494Z,28.45
2019-03-01T01:50:18.255Z,29.70
2019-03-01T01:52:49.691Z,28.17
2019-03-01T01:55:22.456Z,29.90
2019-03-01T01:57:54.094Z,30.52
2019-03-01T02:00:25.963Z,30.17
2019-03-01T02:02:57.583Z,29.60
2019-03-01T02:05:29.828Z,29.75
2019-03-01T02:08:01.487Z,28.30
2019-03-01T02:10:34.257Z,29.65
2019-03-01T02:13:05.849Z,29.12
2019-03-01T02:15:37.478Z,30.65
2019-03-01T02:18:09.033Z,29.90
2019-03-01T02:20:42.432Z,30.12
2019-03-01T02:23:14.178Z,30.82
2019-03-01T02:25:46.175Z,30.88
2019-03-01T02:28:17.803Z,29.20
2019-03-01T02:30:50.058Z,28.77
2019-03-01T02:33:21.695Z,29.05
2019-03-01T02:36:04.131Z,29.20
2019-03-01T02:38:35.670Z,28.83
2019-03-01T02:41:07.328Z,33.55
2019-03-01T02:43:39.018Z,33.40
2019-03-01T02:46:10.576Z,33.70
2019-03-01T02:48:42.201Z,33.73
2019-03-01T02:51:13.875Z,33.63
2019-03-01T02:53:45.506Z,33.88
2019-03-01T02:56:18.357Z,34.53
2019-03-01T02:58:49.898Z,38.75
2019-03-01T03:01:21.502Z,40.08
2019-03-01T03:03:53.040Z,40.90
2019-03-01T03:06:42.520Z,42.50
2019-03-01T03:09:14.890Z,39.58
2019-03-01T03:11:46.556Z,40.78
2019-03-01T03:14:18.151Z,39.70
2019-03-01T03:16:49.878Z,38.13
2019-03-01T03:19:21.438Z,37.65
2019-03-01T03:21:53.068Z,35.80
2019-03-01T03:24:24.472Z,34.35
2019-03-01T03:26:56.046Z,32.35
2019-03-01T03:29:28.780Z,34.45
2019-03-01T03:32:00.457Z,40.78
2019-03-01T03:34:32.029Z,39.23
2019-03-01T03:37:03.519Z,38.20
2019-03-01T03:39:34.926Z,33.63
2019-03-01T03:42:06.644Z,31.52
2019-03-01T03:44:39.018Z,33.13
2019-03-01T03:47:10.790Z,32.33
2019-03-01T03:49:42.588Z,31.15
2019-03-01T03:52:14.183Z,31.45
2019-03-01T03:54:45.882Z,31.45
2019-03-01T03:57:17.698Z,32.13
2019-03-01T03:59:50.578Z,33.60
2019-03-01T04:02:23.421Z,33.38
2019-03-01T04:04:55.078Z,33.02
2019-03-01T04:07:28.238Z,33.13
2019-03-01T04:10:00.866Z,33.23
2019-03-01T04:12:32.719Z,32.95
2019-03-01T04:15:05.357Z,31.75
2019-03-01T04:17:37.151Z,33.25
2019-03-01T04:20:10.665Z,33.88
2019-03-01T04:22:42.190Z,34.90
2019-03-01T04:25:13.834Z,34.30
2019-03-01T04:27:45.462Z,51.92
2019-03-01T04:30:17.723Z,47.53
2019-03-01T04:32:49.400Z,44.33
2019-03-01T04:35:21.134Z,40.05
2019-03-01T04:37:53.064Z,39.30
2019-03-01T04:40:25.103Z,40.08
2019-03-01T04:43:15.459Z,45.35
2019-03-01T04:45:47.109Z,37.83
2019-03-01T04:48:19.972Z,40.40
2019-03-01T04:50:51.737Z,35.78
2019-03-01T04:53:24.698Z,35.15
2019-03-01T04:55:56.294Z,35.75
2019-03-01T04:58:27.833Z,37.45
2019-03-01T05:00:59.487Z,39.42
2019-03-01T05:03:31.997Z,37.58
2019-03-01T05:06:03.667Z,40.15
2019-03-01T05:08:36.128Z,46.05
2019-03-01T05:11:07.759Z,43.00
2019-03-01T05:13:39.872Z,41.88
2019-03-01T05:16:11.673Z,46.73
2019-03-01T05:18:43.921Z,42.33
2019-03-01T05:21:16.649Z,42.23
2019-03-01T05:23:48.244Z,42.55
2019-03-01T05:26:19.907Z,33.63
2019-03-01T05:28:51.539Z,29.02
2019-03-01T05:31:23.243Z,28.32
2019-03-01T05:33:55.439Z,28.47
2019-03-01T05:36:28.044Z,28.42
2019-03-01T05:38:59.748Z,26.93
2019-03-01T05:41:33.021Z,28.15
2019-03-01T05:44:15.333Z,26.33
2019-03-01T05:46:47.109Z,25.88
2019-03-01T05:49:18.806Z,27.07
2019-03-01T05:51:50.656Z,34.23
2019-03-01T05:54:22.344Z,38.80
2019-03-01T05:56:54.027Z,31.82
2019-03-01T05:59:27.459Z,26.90
2019-03-01T06:02:31.048Z,26.50
2019-03-01T06:05:06.751Z,27.30
2019-03-01T06:08:20.618Z,26.27
2019-03-01T06:11:09.931Z,26.37
2019-03-01T06:14:24.993Z,25.70
2019-03-01T06:18:01.455Z,24.57
2019-03-01T06:20:56.878Z,25.60
2019-03-01T06:23:57.841Z,29.03
2019-03-01T06:26:48.501Z,27.07
2019-03-01T06:29:54.585Z,27.80
2019-03-01T06:32:59.488Z,30.50
2019-03-01T06:36:06.050Z,36.53
2019-03-01T06:39:45.575Z,31.20
2019-03-01T06:43:00.345Z,29.63
2019-03-01T06:46:24.799Z,30.17
2019-03-01T06:49:00.320Z,35.60
2019-03-01T06:51:34.639Z,41.07
2019-03-01T06:54:06.374Z,30.00
2019-03-01T06:56:37.968Z,31.37
2019-03-01T06:59:09.775Z,27.50
2019-03-01T07:01:48.197Z,34.57
2019-03-01T07:04:20.239Z,34.30
2019-03-01T07:06:53.202Z,36.87
2019-03-01T07:09:24.726Z,38.90
2019-03-01T07:11:57.091Z,34.33
2019-03-01T07:14:28.831Z,38.50
2019-03-01T07:17:00.395Z,40.00
2019-03-01T07:19:50.804Z,36.53
2019-03-01T07:22:22.843Z,34.57
2019-03-01T07:24:54.733Z,33.90
2019-03-01T07:27:26.427Z,33.47
2019-03-01T07:29:58.853Z,34.97
2019-03-01T07:32:31.938Z,35.87
2019-03-01T07:35:03.872Z,41.77
2019-03-01T07:37:36.920Z,38.90
2019-03-01T07:40:08.900Z,32.73
2019-03-01T07:42:40.592Z,32.17
2019-03-01T07:45:12.368Z,47.53
2019-03-01T07:47:44.097Z,34.03
2019-03-01T07:50:15.872Z,31.40
2019-03-01T07:52:47.470Z,34.27
2019-03-01T07:55:19.260Z,29.63
2019-03-01T07:57:50.990Z,32.37
2019-03-01T08:00:22.574Z,29.97
2019-03-01T08:02:54.883Z,28.07
2019-03-01T08:05:26.578Z,24.33
2019-03-01T08:08:02.584Z,26.77
2019-03-01T08:10:31.480Z,27.73
2019-03-01T08:13:03.165Z,33.97
2019-03-01T08:15:34.815Z,32.63
2019-03-01T08:18:08.174Z,33.63
2019-03-01T08:20:40.135Z,33.20
2019-03-01T08:23:11.751Z,30.53
2019-03-01T08:25:43.426Z,29.83
2019-03-01T08:28:18.372Z,33.77
2019-03-01T08:30:49.568Z,30.57
2019-03-01T08:33:31.953Z,28.87
2019-03-01T08:36:05.820Z,32.30
2019-03-01T08:38:37.760Z,29.10
2019-03-01T08:41:10.440Z,32.73
2019-03-01T08:43:44.740Z,30.50
2019-03-01T08:46:15.504Z,31.03
2019-03-01T08:48:47.126Z,32.07
2019-03-01T08:51:18.761Z,32.73
2019-03-01T08:53:51.055Z,35.47
2019-03-01T08:56:26.046Z,34.43
2019-03-01T08:58:57.246Z,36.30
2019-03-01T09:01:28.974Z,32.87
2019-03-01T09:04:03.345Z,32.63
2019-03-01T09:06:34.995Z,37.93
2019-03-01T09:09:08.787Z,37.67
2019-03-01T09:11:44.711Z,35.67
2019-03-01T09:14:15.374Z,39.03
2019-03-01T09:16:47.154Z,39.93
2019-03-01T09:19:22.296Z,36.30
2019-03-01T09:21:53.318Z,38.87
2019-03-01T09:24:25.755Z,39.77
2019-03-01T09:26:58.547Z,39.60
2019-03-01T09:29:30.809Z,40.03
2019-03-01T09:32:02.421Z,41.60
2019-03-01T09:34:34.327Z,39.60
2019-03-01T09:37:05.972Z,43.97
2019-03-01T09:39:37.580Z,43.77
2019-03-01T09:42:12.348Z,44.67
2019-03-01T09:44:42.963Z,44.13
2019-03-01T09:47:14.618Z,47.70
2019-03-01T09:49:46.143Z,50.30
2019-03-01T09:52:20.369Z,43.20
2019-03-01T09:54:51.050Z,52.87
2019-03-01T09:57:33.622Z,46.97
2019-03-01T10:00:05.454Z,46.20
2019-03-01T10:02:37.492Z,49.17
2019-03-01T10:05:12.015Z,52.67
2019-03-01T10:07:43.567Z,47.40
2019-03-01T10:10:19.801Z,47.73
2019-03-01T10:12:51.362Z,51.47
2019-03-01T10:15:24.066Z,44.73
2019-03-01T10:17:55.697Z,44.83
2019-03-01T10:20:27.519Z,44.67
2019-03-01T10:22:59.095Z,44.10
2019-03-01T10:25:31.024Z,46.83
2019-03-01T10:28:21.289Z,45.00
2019-03-01T10:30:53.052Z,42.20
2019-03-01T10:33:24.725Z,46.00
2019-03-01T10:35:58.564Z,8.20
2019-03-01T10:38:31.687Z,5.47
2019-03-01T10:41:03.491Z,4.83
2019-03-01T10:43:35.142Z,4.40
2019-03-01T10:46:06.820Z,4.50
2019-03-01T10:48:41.082Z,4.40
2019-03-01T10:51:13.736Z,6.53
2019-03-01T10:53:45.500Z,4.97
2019-03-01T10:56:18.148Z,5.30
2019-03-01T10:58:49.699Z,4.60
2019-03-01T11:01:21.419Z,4.00
2019-03-01T11:03:53.145Z,4.80
2019-03-01T11:06:24.907Z,4.80
2019-03-01T11:08:56.696Z,4.70
2019-03-01T11:11:28.399Z,5.07
2019-03-01T11:13:59.963Z,4.03
2019-03-01T11:16:31.615Z,4.10
2019-03-01T11:19:04.113Z,5.33
2019-03-01T11:21:35.746Z,4.60
2019-03-01T11:24:07.189Z,5.47
2019-03-01T11:26:40.079Z,4.47
2019-03-01T11:29:11.692Z,5.23
2019-03-01T11:31:44.397Z,4.43
2019-03-01T11:34:16.977Z,4.87
2019-03-01T11:36:48.682Z,4.63
2019-03-01T11:39:20.761Z,3.63
2019-03-01T11:41:52.602Z,4.80
2019-03-01T11:44:23.984Z,4.90
2019-03-01T11:46:56.255Z,5.07
2019-03-01T11:49:28.899Z,4.87
2019-03-01T11:52:00.399Z,4.97
2019-03-01T11:54:32.162Z,4.93
2019-03-01T11:57:03.906Z,5.33
2019-03-01T11:59:35.777Z,5.37
2019-03-01T12:02:08.130Z,4.90
2019-03-01T12:04:39.936Z,4.77
2019-03-01T12:07:11.649Z,4.93
2019-03-01T12:09:43.320Z,5.00
2019-03-01T12:12:15.958Z,4.53
2019-03-01T12:14:47.609Z,5.27
2019-03-01T12:17:19.845Z,5.20
2019-03-01T12:19:51.627Z,6.40
2019-03-01T12:22:23.464Z,5.43
2019-03-01T12:24:55.160Z,5.47
2019-03-01T12:27:27.942Z,5.73
2019-03-01T12:29:59.711Z,5.10
2019-03-01T12:32:32.658Z,5.70
2019-03-01T12:35:04.400Z,7.90
2019-03-01T12:37:36.026Z,6.50
2019-03-01T12:40:08.921Z,5.33
2019-03-01T12:42:40.612Z,5.33
2019-03-01T12:45:13.560Z,5.70
2019-03-01T12:47:45.257Z,5.67
2019-03-01T12:50:17.181Z,4.80
2019-03-01T12:52:49.787Z,5.67
2019-03-01T12:55:23.289Z,5.37
2019-03-01T12:57:55.063Z,5.30
2019-03-01T13:00:30.769Z,5.57
2019-03-01T13:03:05.332Z,5.47
2019-03-01T13:05:36.804Z,7.40
2019-03-01T13:08:08.790Z,6.10
2019-03-01T13:10:41.450Z,5.87
2019-03-01T13:13:13.374Z,6.93
2019-03-01T13:15:48.377Z,6.03
2019-03-01T13:18:18.531Z,5.70
2019-03-01T13:21:01.607Z,8.03
2019-03-01T13:23:37.546Z,6.30
2019-03-01T13:26:07.970Z,6.77
2019-03-01T13:28:39.750Z,5.87
2019-03-01T13:31:12.332Z,6.37
2019-03-01T13:33:44.210Z,5.30
2019-03-01T13:36:15.925Z,6.13
2019-03-01T13:38:48.176Z,5.87
2019-03-01T13:41:20.538Z,6.03
2019-03-01T13:43:52.291Z,6.93
2019-03-01T13:46:26.399Z,5.83
2019-03-01T13:48:57.371Z,5.07
2019-03-01T13:51:29.150Z,5.90
2019-03-01T13:54:00.969Z,5.60
2019-03-01T13:56:32.824Z,5.67
2019-03-01T13:59:06.183Z,5.20
2019-03-01T14:01:37.954Z,5.63
2019-03-01T14:04:09.887Z,6.90
2019-03-01T14:06:41.661Z,6.10
2019-03-01T14:09:15.475Z,6.27
2019-03-01T14:11:48.096Z,5.53
2019-03-01T14:14:19.864Z,5.77
2019-03-01T14:16:52.232Z,6.47
2019-03-01T14:19:23.961Z,6.77
2019-03-01T14:21:57.133Z,7.57
2019-03-01T14:24:29.530Z,8.40
2019-03-01T14:27:03.303Z,8.53
2019-03-01T14:29:36.825Z,8.20
2019-03-01T14:32:08.497Z,8.13
2019-03-01T14:34:40.255Z,7.70
2019-03-01T14:37:11.813Z,7.23
2019-03-01T14:39:45.378Z,9.53
2019-03-01T14:42:16.908Z,18.60
2019-03-01T14:44:51.209Z,12.77
2019-03-01T14:47:22.877Z,10.60
2019-03-01T14:50:01.668Z,15.40
2019-03-01T14:52:34.357Z,10.20
2019-03-01T14:55:08.313Z,12.07
2019-03-01T14:57:47.053Z,10.97
2019-03-01T15:00:25.625Z,18.87
2019-03-01T15:03:27.871Z,18.33
2019-03-01T15:06:00.802Z,15.57
2019-03-01T15:08:32.729Z,14.27
2019-03-01T15:11:10.767Z,13.00
2019-03-01T15:13:42.979Z,8.87
2019-03-01T15:16:14.792Z,7.70
2019-03-01T15:18:46.489Z,11.23
2019-03-01T15:21:19.620Z,11.77
2019-03-01T15:23:52.349Z,11.53
2019-03-01T15:26:26.677Z,18.53
2019-03-01T15:28:58.891Z,25.20
2019-03-01T15:31:31.159Z,31.27
2019-03-01T15:34:03.035Z,27.90
2019-03-01T15:36:35.826Z,17.97
2019-03-01T15:39:08.534Z,14.67
2019-03-01T15:41:42.129Z,12.40
2019-03-01T15:44:13.985Z,11.03
2019-03-01T15:46:46.355Z,11.77
2019-03-01T15:49:23.510Z,10.57
2019-03-01T15:51:53.102Z,12.27
2019-03-01T15:54:24.810Z,11.73
2019-03-01T15:56:56.662Z,11.43
2019-03-01T15:59:28.407Z,11.67
2019-03-01T16:02:00.219Z,13.50
2019-03-01T16:04:33.708Z,14.43
2019-03-01T16:07:05.251Z,13.90
2019-03-01T16:09:37.550Z,14.67
2019-03-01T16:12:09.934Z,13.47
2019-03-01T16:14:41.602Z,13.70
2019-03-01T16:17:14.348Z,12.10
2019-03-01T16:19:46.952Z,14.20
2019-03-01T16:22:19.684Z,20.30
2019-03-01T16:24:51.979Z,21.27
2019-03-01T16:27:23.846Z,26.37
2019-03-01T16:29:56.270Z,23.40
2019-03-01T16:32:28.064Z,24.47
2019-03-01T16:34:59.896Z,23.80
2019-03-01T16:37:31.760Z,23.73
2019-03-01T16:40:05.435Z,23.57
2019-03-01T16:42:41.081Z,24.50
2019-03-01T16:45:12.795Z,27.37
2019-03-01T16:47:44.682Z,28.83
2019-03-01T16:50:22.601Z,26.37
2019-03-01T16:52:54.556Z,25.47
2019-03-01T16:55:27.804Z,22.93
2019-03-01T16:58:06.727Z,21.87
2019-03-01T17:00:33.407Z,21.10
2019-03-01T17:03:06.847Z,18.10
2019-03-01T17:05:39.737Z,17.60
2019-03-01T17:08:11.883Z,16.30
2019-03-01T17:10:45.604Z,15.40
2019-03-01T17:13:17.903Z,15.10
2019-03-01T17:15:57.930Z,15.27
2019-03-01T17:18:30.659Z,15.63
2019-03-01T17:21:16.589Z,16.83
2019-03-01T17:23:48.335Z,16.93
2019-03-01T17:26:21.237Z,19.43
2019-03-01T17:28:53.989Z,20.87
2019-03-01T17:31:26.860Z,21.90
2019-03-01T17:33:59.214Z,21.33
2019-03-01T17:36:31.269Z,20.63
2019-03-01T17:39:03.084Z,19.37
2019-03-01T17:41:37.471Z,25.67
2019-03-01T17:44:09.611Z,34.73
2019-03-01T17:46:42.381Z,44.73
2019-03-01T17:49:14.189Z,45.10
2019-03-01T17:51:45.977Z,67.97
2019-03-01T17:54:18.995Z,52.20
2019-03-01T17:56:54.053Z,55.97
2019-03-01T17:59:25.920Z,56.10
2019-03-01T18:01:57.553Z,60.23
2019-03-01T18:04:29.197Z,61.00
2019-03-01T18:07:00.865Z,62.83
2019-03-01T18:09:32.738Z,62.37
2019-03-01T18:12:05.464Z,67.50
2019-03-01T18:14:37.603Z,72.20
2019-03-01T18:17:09.510Z,66.20
2019-03-01T18:19:41.363Z,71.03
2019-03-01T18:22:13.334Z,69.30
2019-03-01T18:24:46.748Z,68.30
2019-03-01T18:27:18.825Z,69.20
2019-03-01T18:29:50.663Z,63.97
2019-03-01T18:32:23.698Z,68.73
2019-03-01T18:34:58.449Z,68.00
2019-03-01T18:37:32.433Z,69.40
2019-03-01T18:40:04.813Z,69.83
2019-03-01T18:42:38.059Z,72.07
2019-03-01T18:45:13.740Z,97.27
2019-03-01T18:47:45.849Z,79.20
2019-03-01T18:50:23.908Z,78.33
2019-03-01T18:52:56.130Z,73.27
2019-03-01T18:55:28.236Z,74.63
2019-03-01T18:58:00.107Z,74.07
2019-03-01T19:00:35.844Z,70.10
2019-03-01T19:03:07.805Z,74.07
2019-03-01T19:05:41.179Z,71.27
2019-03-01T19:08:13.027Z,84.10
2019-03-01T19:10:53.742Z,88.70
2019-03-01T19:13:20.852Z,83.37
2019-03-01T19:15:54.517Z,84.00
2019-03-01T19:18:26.482Z,84.63
2019-03-01T19:20:58.146Z,84.70
2019-03-01T19:23:32.407Z,81.50
2019-03-01T19:26:03.264Z,83.37
2019-03-01T19:28:34.945Z,86.63
2019-03-01T19:31:07.238Z,79.07
2019-03-01T19:33:41.470Z,73.97
2019-03-01T19:36:13.264Z,74.13
2019-03-01T19:38:46.393Z,70.67
2019-03-01T19:41:20.102Z,61.47
2019-03-01T19:43:57.438Z,60.33
2019-03-01T19:46:26.591Z,61.30
2019-03-01T19:48:58.535Z,58.10
2019-03-01T19:51:30.409Z,54.50
2019-03-01T19:54:02.132Z,52.70
2019-03-01T19:56:35.110Z,56.57
2019-03-01T19:59:07.021Z,50.37
2019-03-01T20:01:39.168Z,53.03
2019-03-01T20:04:11.152Z,49.20
2019-03-01T20:06:43.472Z,45.27
2019-03-01T20:09:16.317Z,43.50
2019-03-01T20:11:48.326Z,42.43
2019-03-01T20:14:20.179Z,43.68
2019-03-01T20:16:54.856Z,41.80
2019-03-01T20:19:24.967Z,42.17
2019-03-01T20:21:56.709Z,39.30
2019-03-01T20:24:28.314Z,39.15
2019-03-01T20:27:03.024Z,37.23
2019-03-01T20:29:33.333Z,37.40
2019-03-01T20:32:06.032Z,37.40
2019-03-01T20:34:37.980Z,38.15
2019-03-01T20:37:10.305Z,37.50
2019-03-01T20:39:41.863Z,39.67
2019-03-01T20:42:13.819Z,39.60
2019-03-01T20:44:45.396Z,45.15
2019-03-01T20:47:18.385Z,99.40
2019-03-01T20:49:50.758Z,81.95
2019-03-01T20:52:22.633Z,80.35
2019-03-01T20:54:54.237Z,59.80
2019-03-01T20:57:27.026Z,61.15
2019-03-01T20:59:58.769Z,60.40
2019-03-01T21:02:31.630Z,62.58
2019-03-01T21:05:04.290Z,77.03
2019-03-01T21:07:36.375Z,79.27
2019-03-01T21:10:12.577Z,79.32
2019-03-01T21:12:45.590Z,87.25
2019-03-01T21:15:18.480Z,79.70
2019-03-01T21:17:52.933Z,70.05
2019-03-01T21:20:23.580Z,64.15
2019-03-01T21:22:55.367Z,61.37
2019-03-01T21:25:26.828Z,58.55
2019-03-01T21:28:00.903Z,62.50
2019-03-01T21:30:31.659Z,55.70
2019-03-01T21:33:03.382Z,49.90
2019-03-01T21:35:34.939Z,45.88
2019-03-01T21:38:06.465Z,44.20
2019-03-01T21:40:38.039Z,43.65
2019-03-01T21:43:09.785Z,42.73
2019-03-01T21:45:41.470Z,40.35
2019-03-01T21:48:13.109Z,39.03
2019-03-01T21:50:44.665Z,43.08
2019-03-01T21:53:16.355Z,50.15
2019-03-01T21:55:47.891Z,50.98
2019-03-01T21:58:19.365Z,53.45
2019-03-01T22:00:53.274Z,57.43
2019-03-01T22:03:28.017Z,57.88
2019-03-01T22:05:58.850Z,52.85
2019-03-01T22:08:31.318Z,49.35
2019-03-01T22:11:02.761Z,55.70
2019-03-01T22:13:35.749Z,53.20
2019-03-01T22:16:08.261Z,49.93
2019-03-01T22:18:40.071Z,46.80
2019-03-01T22:21:11.546Z,44.85
2019-03-01T22:23:43.185Z,44.00
2019-03-01T22:26:15.986Z,41.65
2019-03-01T22:28:47.718Z,41.05
2019-03-01T22:31:19.400Z,43.17
2019-03-01T22:33:52.647Z,42.23
2019-03-01T22:36:24.689Z,43.80
2019-03-01T22:38:56.521Z,44.60
2019-03-01T22:41:28.096Z,42.17
2019-03-01T22:44:01.687Z,41.70
2019-03-01T22:46:33.129Z,44.58
2019-03-01T22:49:04.757Z,45.63
2019-03-01T22:51:36.516Z,42.53
2019-03-01T22:54:08.322Z,50.05
2019-03-01T22:56:39.984Z,48.20
2019-03-01T22:59:11.995Z,47.38
2019-03-01T23:01:46.247Z,46.83
2019-03-01T23:04:18.260Z,48.87
2019-03-01T23:06:51.472Z,46.85
2019-03-01T23:09:24.235Z,48.63
2019-03-01T23:11:57.492Z,53.13
2019-03-01T23:14:30.831Z,52.60
2019-03-01T23:17:02.335Z,52.62
2019-03-01T23:19:35.145Z,55.85
2019-03-01T23:22:07.633Z,57.00
2019-03-01T23:24:41.318Z,57.95
2019-03-01T23:27:13.069Z,57.93
2019-03-01T23:29:44.819Z,58.05
2019-03-01T23:32:16.781Z,52.60
2019-03-01T23:34:49.709Z,50.88
2019-03-01T23:37:21.238Z,45.03
2019-03-01T23:39:53.273Z,55.52
2019-03-01T23:42:24.830Z,44.08
2019-03-01T23:44:56.483Z,39.00
2019-03-01T23:47:28.100Z,38.40
2019-03-01T23:50:00.526Z,39.53
2019-03-01T23:52:33.494Z,39.23
2019-03-01T23:55:05.421Z,41.80
2019-03-01T23:57:38.009Z,54.15
